Aeroporto :
LOGIN :

Iscrizione | Disclaimer

   EN    FR    IT 

 










Sommario :    VFR   VFR Marginale   IFR   IFR Intensivo   IFR Molto Intensivo
Visibilità : 
Base nubi : 
>= 8 km
>= 3000ft
5 / 8 km
1000 / 3000 ft
1500m / 5 km
500 / 1000 ft
800 / 1500m
200 / 500 ft
< 800m
< 200 ft
Simboli :   Temporali  Nebbia  Neve Forte  Precipitazioni Forti  Vento > 20 kt
SIGMETs :   Varie  Temporali  Ghiacco  Turbolenza  Onda orograficha  Ceneri Vulcaniche






- Altitudine del aeroporto : 25 ft
- Codice IATA : QCY


EGXC - RAF Coningsby

ULTIMO METAR :
  • 201150Z 19015KT 9999 FEW010 BKN250 16/13 Q0999 NOSIG RMK BLU BLU

METARs OBSOLETI :
  • 201050Z 18012KT 9999 FEW010 BKN250 16/13 Q0999 TEMPO SCT014 RMK BLU TEMPO GRN
  • 201034Z 17012KT 9999 FEW011 BKN250 15/13 Q0999 TEMPO SCT014 RMK BLU TEMPO GRN
  • 201011Z 18010KT 9999 SCT012 BKN020 14/12 Q0999 TEMPO FEW012 RMK GRN TEMPO BLU
  • 200950Z 18010KT 9999 FEW010 BKN030 14/12 Q0999 TEMPO SCT010 RMK BLU TEMPO GRN
  • 200923Z 18011KT 9999 FEW012 SCT250 15/13 Q0999 TEMPO SCT014 RMK BLU TEMPO GRN

TAF COR TAF EGXC
Valido dal 20 a 12 ore il 21 a 06 ore UTC


201053Z 2012/2106 18012KT 9999 SCT030
TEMPO 2012/2013 SCT015
PROB40
TEMPO 2012/2017 20015G25KT
TEMPO 2023/2103 BKN008
PROB30
TEMPO 2101/2103 SCT005
TEMPO 2103/2106 BKN005
PROB30
TEMPO 2103/2106 4000 RADZ BKN004



MetMap, La meteo Aeronautica in un colpo d'occhio ! - Copyright ORBIFLY Dicembre 2007 - Disclaimer

ORBIFLY MET'MAP TEAM :

Programmazione e sviluppo : Alexandra Zaïnal
Concezione : Baudouin d'Aumeries
Aiuto per la programmazione : Marc-Olivier Méhu
Supporto tecnico e logistico : Manuel Goepfert
Aiuto per la traduzione : Arnaldo La Scala

Contatto : metmap@orbifly.com




FONTI E CREDITI :

   NOAA